Time;durP1;ratioP1;P1;durP2;ratioP2;P2;SDS_P1;SDS_P2;PMS_P1;PMS_P2;Temp;Humidity;BMP_temperature;BMP_pressure;BME280_temperature;BME280_humidity;BME280_pressure;Samples;Min_cycle;Max_cycle;Signal;HPM_P1;HPM_P2
2023/01/08 00:01:53;;;;;;;4.20;3.80;;;7.60;99.90;;;;;;4972187;28;20456;-82
2023/01/08 00:04:19;;;;;;;3.73;3.37;;;7.60;99.90;;;;;;4972206;28;20202;-83
2023/01/08 00:06:44;;;;;;;4.00;3.60;;;7.50;99.90;;;;;;4988205;28;20200;-82
2023/01/08 00:09:10;;;;;;;3.90;3.50;;;7.50;99.90;;;;;;4987831;28;20197;-82
2023/01/08 00:11:36;;;;;;;3.90;3.23;;;7.50;99.90;;;;;;4972123;28;20209;-83
2023/01/08 00:14:02;;;;;;;4.70;3.90;;;7.60;99.90;;;;;;4972794;28;20828;-83
2023/01/08 00:16:28;;;;;;;4.47;3.87;;;7.40;99.90;;;;;;4988799;28;20248;-82
2023/01/08 00:18:53;;;;;;;5.57;4.83;;;7.40;99.90;;;;;;4972574;28;20551;-80
2023/01/08 00:21:19;;;;;;;5.20;4.10;;;7.30;99.90;;;;;;4956415;28;20233;-80
2023/01/08 00:23:45;;;;;;;6.23;4.17;;;7.20;99.90;;;;;;4988679;28;20220;-81
2023/01/08 00:26:12;;;;;;;5.00;3.70;;;7.10;99.90;;;;;;4988789;28;20848;-81
2023/01/08 00:28:38;;;;;;;6.00;3.77;;;7.10;99.90;;;;;;4972529;28;20443;-82
2023/01/08 00:31:05;;;;;;;4.73;3.60;;;7.10;99.90;;;;;;4988750;28;20468;-85
2023/01/08 00:33:31;;;;;;;5.33;4.00;;;7.20;99.90;;;;;;4973353;28;20221;-84
2023/01/08 00:35:57;;;;;;;3.73;3.13;;;7.00;99.90;;;;;;4989618;28;20425;-85
2023/01/08 00:38:27;;;;;;;3.30;3.00;;;7.00;99.90;;;;;;4957191;28;20459;-83
2023/01/08 00:40:53;;;;;;;4.77;4.17;;;7.20;99.90;;;;;;4972998;28;20205;-83
2023/01/08 00:43:19;;;;;;;4.27;3.50;;;7.20;99.90;;;;;;4972793;28;20466;-82
2023/01/08 00:45:44;;;;;;;4.40;3.57;;;7.10;99.90;;;;;;4972608;28;20200;-80
2023/01/08 00:48:10;;;;;;;6.17;3.77;;;7.10;99.90;;;;;;4988284;28;20857;-81
2023/01/08 00:50:36;;;;;;;3.30;3.00;;;7.10;99.90;;;;;;4972503;28;20223;-81
2023/01/08 00:53:02;;;;;;;3.80;2.80;;;7.10;99.90;;;;;;4956209;28;20217;-82
2023/01/08 00:55:28;;;;;;;3.83;3.33;;;7.10;99.90;;;;;;4972206;28;20226;-82
2023/01/08 00:57:54;;;;;;;4.07;2.77;;;7.00;99.90;;;;;;4972229;28;20903;-81
2023/01/08 01:00:20;;;;;;;2.80;2.60;;;6.90;99.90;;;;;;4988376;28;20432;-80
2023/01/08 01:02:46;;;;;;;2.77;2.57;;;7.00;99.90;;;;;;4989639;28;20858;-79
2023/01/08 01:05:16;;;;;;;3.47;2.67;;;7.00;99.90;;;;;;4972796;28;20271;-79
2023/01/08 01:07:43;;;;;;;3.13;2.70;;;7.10;99.90;;;;;;4974707;28;20521;-78
2023/01/08 01:10:11;;;;;;;3.70;2.40;;;7.10;99.90;;;;;;4989146;28;20425;-78
2023/01/08 01:12:40;;;;;;;2.70;2.50;;;7.30;99.90;;;;;;4988980;28;20483;-78
2023/01/08 01:15:08;;;;;;;2.60;2.40;;;7.50;99.90;;;;;;4971713;28;20468;-78
2023/01/08 01:17:36;;;;;;;2.80;2.37;;;7.70;99.90;;;;;;4971597;28;20429;-79
2023/01/08 01:20:02;;;;;;;3.50;2.47;;;7.80;99.90;;;;;;4989077;28;20429;-79
2023/01/08 01:22:28;;;;;;;6.60;2.37;;;7.80;99.90;;;;;;4988787;28;20506;-79
2023/01/08 01:24:53;;;;;;;2.83;2.23;;;7.70;99.90;;;;;;4991908;28;20910;-80
2023/01/08 01:27:19;;;;;;;2.50;2.30;;;7.70;99.90;;;;;;4990505;28;20655;-78
2023/01/08 01:29:44;;;;;;;2.80;2.43;;;7.80;99.90;;;;;;4989008;28;20245;-79
2023/01/08 01:32:10;;;;;;;2.60;2.40;;;7.90;99.90;;;;;;4970880;28;20737;-80
2023/01/08 01:34:36;;;;;;;2.63;2.43;;;7.90;99.90;;;;;;4987289;28;20247;-78
2023/01/08 01:37:02;;;;;;;3.07;2.20;;;7.90;99.90;;;;;;4971251;28;20232;-79
2023/01/08 01:39:28;;;;;;;3.27;2.97;;;7.90;99.90;;;;;;4987247;28;20681;-79
2023/01/08 01:41:53;;;;;;;4.50;2.70;;;8.00;99.90;;;;;;4970895;28;20472;-80
2023/01/08 01:44:41;;;;;;;2.83;2.53;;;7.90;99.90;;;;;;4987141;28;20201;-79
2023/01/08 01:47:31;;;;;;;4.33;2.57;;;7.90;99.90;;;;;;4970976;28;20344;-80
2023/01/08 01:50:19;;;;;;;3.20;2.87;;;7.90;99.90;;;;;;4986990;28;20903;-79
2023/01/08 01:53:05;;;;;;;3.33;2.63;;;7.80;99.90;;;;;;4986782;28;20491;-81
2023/01/08 01:55:32;;;;;;;3.60;2.93;;;7.90;99.90;;;;;;4970161;28;20431;-80
2023/01/08 01:58:26;;;;;;;4.77;2.83;;;7.80;99.90;;;;;;4970564;28;20988;-80
2023/01/08 02:00:54;;;;;;;6.70;4.77;;;7.80;99.90;;;;;;4968592;28;20441;-81
2023/01/08 02:03:25;;;;;;;5.83;3.27;;;7.60;99.90;;;;;;4970427;28;20448;-80
2023/01/08 02:05:55;;;;;;;4.23;3.80;;;7.60;99.90;;;;;;4986300;28;20470;-82
2023/01/08 02:09:01;;;;;;;8.43;4.33;;;7.60;99.90;;;;;;4986460;28;20437;-82
2023/01/08 02:12:16;;;;;;;6.73;4.10;;;7.60;99.90;;;;;;4970407;28;20496;-82
2023/01/08 02:15:01;;;;;;;4.47;3.80;;;7.60;99.90;;;;;;4989348;28;20432;-79
2023/01/08 02:17:33;;;;;;;7.33;4.00;;;7.60;99.90;;;;;;4992757;28;20804;-78
2023/01/08 02:20:11;;;;;;;5.83;4.10;;;7.70;99.90;;;;;;4992156;28;20427;-81
2023/01/08 02:23:15;;;;;;;4.27;3.87;;;7.60;99.90;;;;;;4991658;28;21100;-79
2023/01/08 02:26:11;;;;;;;7.57;4.40;;;7.50;99.90;;;;;;4973577;28;20428;-80
2023/01/08 02:28:41;;;;;;;4.43;4.00;;;7.40;99.90;;;;;;4991604;28;20535;-80
2023/01/08 02:31:07;;;;;;;5.77;4.17;;;7.30;99.90;;;;;;4991801;28;20446;-80
2023/01/08 02:33:34;;;;;;;4.00;3.40;;;7.20;99.90;;;;;;4989265;28;20483;-81
2023/01/08 02:36:38;;;;;;;4.80;3.70;;;7.40;99.90;;;;;;4990686;28;20421;-81
2023/01/08 02:39:23;;;;;;;4.20;3.63;;;7.50;99.90;;;;;;4970010;28;20789;-79
2023/01/08 02:42:15;;;;;;;6.50;3.13;;;7.60;99.90;;;;;;4990619;28;20632;-80
2023/01/08 02:44:47;;;;;;;4.33;3.27;;;7.60;99.90;;;;;;4989047;28;20417;-79
2023/01/08 02:47:51;;;;;;;3.33;3.03;;;7.60;99.90;;;;;;4990477;28;20412;-81
2023/01/08 02:50:20;;;;;;;4.70;3.37;;;7.70;99.90;;;;;;4990083;28;20401;-81
2023/01/08 02:53:11;;;;;;;3.00;2.77;;;7.90;99.90;;;;;;4972713;28;20550;-83
2023/01/08 02:55:40;;;;;;;2.87;2.67;;;7.90;99.90;;;;;;4969844;28;20432;-81
2023/01/08 02:58:06;;;;;;;3.37;2.97;;;7.90;99.90;;;;;;4972243;28;20433;-79
2023/01/08 03:00:32;;;;;;;3.40;3.00;;;7.90;99.90;;;;;;4989802;28;20953;-79
2023/01/08 03:03:21;;;;;;;3.27;2.83;;;8.00;99.90;;;;;;4988481;28;20433;-80
2023/01/08 03:05:59;;;;;;;4.77;3.50;;;8.00;99.90;;;;;;4972326;28;20454;-80
2023/01/08 03:08:25;;;;;;;3.60;2.90;;;8.00;99.90;;;;;;4988596;28;20435;-81
2023/01/08 03:11:03;;;;;;;4.57;3.10;;;7.80;99.90;;;;;;4972415;28;21273;-80
2023/01/08 03:13:59;;;;;;;5.13;3.20;;;7.70;99.90;;;;;;4972387;28;20574;-80
2023/01/08 03:16:28;;;;;;;3.27;2.80;;;7.80;99.90;;;;;;4988821;28;20414;-80
2023/01/08 03:19:16;;;;;;;7.47;2.70;;;7.80;99.90;;;;;;4972646;28;20415;-81
2023/01/08 03:21:45;;;;;;;2.93;2.63;;;7.80;99.90;;;;;;4990164;28;20433;-81
2023/01/08 03:24:15;;;;;;;3.13;2.80;;;7.80;99.90;;;;;;4989028;28;20417;-81
2023/01/08 03:26:43;;;;;;;2.60;2.40;;;7.70;99.90;;;;;;4972373;28;20437;-81
2023/01/08 03:29:12;;;;;;;3.53;2.53;;;7.70;99.90;;;;;;4972178;28;20444;-80
2023/01/08 03:31:39;;;;;;;2.60;2.40;;;7.80;99.90;;;;;;4952370;28;1091831;-80
2023/01/08 03:34:06;;;;;;;3.80;2.57;;;8.00;99.90;;;;;;4957196;28;20596;-81
2023/01/08 03:36:36;;;;;;;2.90;2.60;;;8.00;99.90;;;;;;4989423;28;20421;-79
2023/01/08 03:39:11;;;;;;;3.00;2.43;;;8.00;99.90;;;;;;4990771;28;20789;-80
2023/01/08 03:41:36;;;;;;;2.30;1.90;;;7.90;99.90;;;;;;4990625;28;20575;-80
2023/01/08 03:44:03;;;;;;;4.17;2.90;;;7.90;99.90;;;;;;4989084;28;20511;-79
2023/01/08 03:46:32;;;;;;;2.37;2.17;;;8.00;99.90;;;;;;4989228;28;20572;-79
2023/01/08 03:48:58;;;;;;;2.60;1.57;;;8.00;99.90;;;;;;4972479;28;20437;-78
2023/01/08 03:51:24;;;;;;;3.07;2.17;;;8.20;99.90;;;;;;4972372;28;20600;-79
2023/01/08 03:53:53;;;;;;;2.40;1.80;;;8.20;99.90;;;;;;4988536;28;20465;-78
2023/01/08 03:56:18;;;;;;;4.20;2.60;;;8.30;99.90;;;;;;4971873;28;20421;-80
2023/01/08 03:58:44;;;;;;;2.63;2.33;;;8.20;99.90;;;;;;4971880;28;20424;-80
2023/01/08 04:01:10;;;;;;;3.60;3.13;;;8.30;99.90;;;;;;4956172;28;20233;-80
2023/01/08 04:03:35;;;;;;;3.27;2.90;;;8.30;99.90;;;;;;4971973;28;20210;-80
2023/01/08 04:06:01;;;;;;;3.97;3.10;;;8.00;99.90;;;;;;4988109;28;20183;-79
2023/01/08 04:08:27;;;;;;;6.00;2.97;;;8.00;99.90;;;;;;4971791;28;20344;-79
2023/01/08 04:10:52;;;;;;;5.60;3.73;;;7.90;99.90;;;;;;4988063;28;20213;-80
2023/01/08 04:13:18;;;;;;;5.57;4.10;;;8.00;99.90;;;;;;4989294;28;20205;-80
2023/01/08 04:15:50;;;;;;;4.27;3.77;;;8.10;99.90;;;;;;4989903;28;20228;-81
2023/01/08 04:18:17;;;;;;;7.43;6.00;;;7.80;99.90;;;;;;4974762;28;20209;-81
2023/01/08 04:20:46;;;;;;;7.30;5.50;;;7.60;99.90;;;;;;4992735;28;20456;-80
2023/01/08 04:23:13;;;;;;;15.73;7.70;;;7.30;99.90;;;;;;5009571;28;20434;-78
2023/01/08 04:25:38;;;;;;;7.87;6.70;;;6.90;99.90;;;;;;4976873;28;20645;-80
2023/01/08 04:28:04;;;;;;;8.50;6.33;;;6.70;99.90;;;;;;4992927;28;20452;-80
2023/01/08 04:30:30;;;;;;;8.83;7.47;;;6.50;99.90;;;;;;5007043;28;20210;-80
2023/01/08 04:32:56;;;;;;;8.70;7.00;;;6.30;99.90;;;;;;4975307;28;20612;-81
2023/01/08 04:35:21;;;;;;;11.60;7.37;;;6.20;99.90;;;;;;4992183;28;20441;-81
2023/01/08 04:37:47;;;;;;;8.00;6.13;;;6.10;99.90;;;;;;4990998;28;20471;-80
2023/01/08 04:40:13;;;;;;;9.97;7.37;;;6.10;99.90;;;;;;4974147;28;20186;-81
2023/01/08 04:42:38;;;;;;;9.30;6.90;;;6.10;99.90;;;;;;4974250;28;20236;-81
2023/01/08 04:45:06;;;;;;;7.90;6.63;;;6.00;99.90;;;;;;4973637;28;20221;-82
2023/01/08 04:47:32;;;;;;;7.67;6.47;;;6.00;99.90;;;;;;4973910;28;20189;-82
2023/01/08 04:49:58;;;;;;;9.17;7.03;;;6.00;99.90;;;;;;4974067;28;20519;-82
2023/01/08 04:52:23;;;;;;;8.23;6.50;;;6.00;99.90;;;;;;4973383;28;20520;-78
2023/01/08 04:54:49;;;;;;;7.50;6.50;;;6.00;99.90;;;;;;4973536;28;20236;-80
2023/01/08 04:57:14;;;;;;;9.83;7.33;;;6.00;99.90;;;;;;4990515;28;20189;-79
2023/01/08 04:59:40;;;;;;;8.13;6.30;;;6.00;99.90;;;;;;4990287;28;20244;-79
2023/01/08 05:02:06;;;;;;;6.30;5.70;;;6.00;99.90;;;;;;4990512;28;20832;-79
2023/01/08 05:04:31;;;;;;;6.17;5.27;;;6.10;99.90;;;;;;4989932;28;20204;-80
2023/01/08 05:06:57;;;;;;;8.50;5.60;;;6.00;99.90;;;;;;4991390;28;20190;-80
2023/01/08 05:09:22;;;;;;;7.57;5.10;;;6.10;99.90;;;;;;4989622;28;20198;-79
2023/01/08 05:11:48;;;;;;;10.70;6.00;;;6.30;99.90;;;;;;4989259;28;20765;-79
2023/01/08 05:14:14;;;;;;;6.93;5.90;;;6.50;99.90;;;;;;4989011;28;20213;-80
2023/01/08 05:16:39;;;;;;;7.50;5.87;;;6.40;99.90;;;;;;4955778;28;20193;-79
2023/01/08 05:19:05;;;;;;;5.70;4.60;;;6.60;99.90;;;;;;4972431;28;20189;-83
2023/01/08 05:21:30;;;;;;;8.20;5.43;;;6.70;99.90;;;;;;4988233;28;20208;-83
2023/01/08 05:23:56;;;;;;;6.80;4.50;;;6.70;99.90;;;;;;4989707;28;20186;-82
2023/01/08 05:26:22;;;;;;;5.40;3.50;;;6.70;99.90;;;;;;4988272;28;20196;-78
2023/01/08 05:28:48;;;;;;;4.77;4.00;;;6.90;99.90;;;;;;4989637;28;20194;-78
2023/01/08 05:31:14;;;;;;;4.50;2.97;;;7.00;99.90;;;;;;4988311;28;20229;-79
2023/01/08 05:33:39;;;;;;;4.27;2.50;;;7.20;99.90;;;;;;4989251;28;20209;-79
2023/01/08 05:36:10;;;;;;;4.90;4.10;;;7.30;99.90;;;;;;4971874;28;20950;-79
2023/01/08 05:38:36;;;;;;;4.80;2.90;;;7.30;99.90;;;;;;4988771;28;20185;-78
2023/01/08 05:41:02;;;;;;;5.37;4.23;;;7.30;99.90;;;;;;4971332;28;20809;-79
2023/01/08 05:43:28;;;;;;;4.20;3.67;;;7.30;99.90;;;;;;4970438;28;20421;-76
2023/01/08 05:45:57;;;;;;;3.97;3.63;;;7.30;99.90;;;;;;4986410;28;20437;-76
2023/01/08 05:48:23;;;;;;;4.63;3.20;;;7.30;99.90;;;;;;4991214;28;20456;-77
2023/01/08 05:50:49;;;;;;;4.17;3.63;;;7.40;99.90;;;;;;4974361;28;20536;-78
2023/01/08 05:53:15;;;;;;;5.60;3.13;;;7.40;99.90;;;;;;4973940;28;20972;-78
2023/01/08 05:55:40;;;;;;;4.97;3.20;;;7.50;99.90;;;;;;4991663;28;20471;-78
2023/01/08 05:58:06;;;;;;;3.60;2.60;;;7.60;99.90;;;;;;4974398;28;20428;-77
2023/01/08 06:00:34;;;;;;;3.53;3.23;;;7.60;99.90;;;;;;4974067;28;20214;-78
2023/01/08 06:03:00;;;;;;;2.73;2.53;;;7.60;99.90;;;;;;4992204;28;20193;-78
2023/01/08 06:05:26;;;;;;;4.67;2.80;;;7.70;99.90;;;;;;4992082;28;20413;-79
2023/01/08 06:07:52;;;;;;;4.50;2.40;;;7.80;99.90;;;;;;4990440;28;20220;-78
2023/01/08 06:10:17;;;;;;;2.30;2.10;;;7.80;99.90;;;;;;4990306;28;20680;-78
2023/01/08 06:12:43;;;;;;;4.23;2.90;;;7.90;99.90;;;;;;4990354;28;20206;-78
2023/01/08 06:15:10;;;;;;;3.53;2.70;;;7.80;99.90;;;;;;4991530;28;20189;-78
2023/01/08 06:17:35;;;;;;;2.70;1.97;;;8.00;99.90;;;;;;4973667;28;20450;-78
2023/01/08 06:20:01;;;;;;;2.60;2.40;;;8.00;99.90;;;;;;4991525;28;20539;-78
2023/01/08 06:22:26;;;;;;;3.97;2.50;;;8.00;99.90;;;;;;4989903;28;20679;-78
2023/01/08 06:24:52;;;;;;;2.53;2.30;;;8.00;99.90;;;;;;4990446;28;20220;-78
2023/01/08 06:27:18;;;;;;;3.77;2.17;;;8.00;99.90;;;;;;4973898;28;20195;-78
2023/01/08 06:29:43;;;;;;;3.23;2.93;;;8.00;99.90;;;;;;4990200;28;20440;-78
2023/01/08 06:32:09;;;;;;;2.33;2.13;;;8.10;99.90;;;;;;4991793;28;20219;-78
2023/01/08 06:34:35;;;;;;;3.33;2.60;;;8.00;99.90;;;;;;4990746;28;20594;-77
2023/01/08 06:37:00;;;;;;;2.23;2.03;;;8.10;99.90;;;;;;4993684;28;20186;-78
2023/01/08 06:39:26;;;;;;;4.23;3.07;;;8.10;99.90;;;;;;4991928;28;20197;-77
2023/01/08 06:41:52;;;;;;;2.50;2.30;;;8.10;99.90;;;;;;4992894;28;20700;-77
2023/01/08 06:44:17;;;;;;;2.03;1.93;;;8.10;99.90;;;;;;4992165;28;20221;-76
2023/01/08 06:46:43;;;;;;;1.70;1.60;;;8.10;99.90;;;;;;4990088;28;20182;-77
2023/01/08 06:49:09;;;;;;;1.67;1.47;;;8.20;99.90;;;;;;4990050;28;20193;-78
2023/01/08 06:51:35;;;;;;;4.17;1.53;;;8.20;99.90;;;;;;4990983;28;20584;-77
2023/01/08 06:54:01;;;;;;;2.50;1.83;;;8.10;99.90;;;;;;4990647;28;20468;-77
2023/01/08 06:56:27;;;;;;;1.93;1.47;;;8.10;99.90;;;;;;4989826;28;20429;-76
2023/01/08 06:58:53;;;;;;;1.47;1.37;;;8.10;99.90;;;;;;4989128;28;20502;-75
2023/01/08 07:01:18;;;;;;;4.13;1.63;;;8.10;99.90;;;;;;4988844;28;21008;-75
2023/01/08 07:03:44;;;;;;;2.57;1.83;;;8.10;99.90;;;;;;4990139;28;20190;-76
2023/01/08 07:06:19;;;;;;;3.63;1.60;;;8.20;99.90;;;;;;4972434;28;20201;-75
2023/01/08 07:08:45;;;;;;;1.53;1.30;;;8.00;99.90;;;;;;4972420;28;21104;-75
2023/01/08 07:11:12;;;;;;;2.60;2.10;;;8.10;99.90;;;;;;4989880;28;21137;-76
2023/01/08 07:13:37;;;;;;;8.87;4.87;;;8.10;99.90;;;;;;4990252;28;20468;-76
2023/01/08 07:16:12;;;;;;;2.83;2.20;;;8.10;99.90;;;;;;4988566;28;20428;-76
2023/01/08 07:18:38;;;;;;;2.40;2.20;;;8.10;99.90;;;;;;4972361;28;20602;-76
2023/01/08 07:21:05;;;;;;;2.00;1.90;;;8.10;99.90;;;;;;4989872;28;21018;-76
2023/01/08 07:23:31;;;;;;;1.60;1.40;;;8.10;99.90;;;;;;4990015;28;20424;-76
2023/01/08 07:26:04;;;;;;;2.60;1.37;;;8.10;99.90;;;;;;4989831;28;20425;-76
2023/01/08 07:28:30;;;;;;;1.47;1.10;;;8.20;99.90;;;;;;4972755;28;20245;-76
2023/01/08 07:30:56;;;;;;;2.10;1.63;;;8.20;99.90;;;;;;4991253;28;21014;-76
2023/01/08 07:33:22;;;;;;;1.10;1.00;;;8.20;99.90;;;;;;4989603;28;20473;-76
2023/01/08 07:35:55;;;;;;;1.53;1.43;;;8.10;99.90;;;;;;4991159;28;20189;-76
2023/01/08 07:38:21;;;;;;;2.30;1.50;;;8.20;99.90;;;;;;4990919;28;20667;-76
2023/01/08 07:40:47;;;;;;;1.40;1.30;;;8.40;99.90;;;;;;4989372;28;20492;-76
2023/01/08 07:43:13;;;;;;;2.90;1.73;;;8.20;99.90;;;;;;4973500;28;20433;-76
2023/01/08 07:45:39;;;;;;;1.73;1.20;;;8.20;99.90;;;;;;4973592;28;20432;-78
2023/01/08 07:48:05;;;;;;;2.23;1.40;;;8.20;99.90;;;;;;4991172;28;20479;-76
2023/01/08 07:50:31;;;;;;;2.40;1.77;;;8.20;99.90;;;;;;4989494;28;20495;-75
2023/01/08 07:53:01;;;;;;;1.43;1.03;;;8.20;99.90;;;;;;4990844;28;20476;-76
2023/01/08 07:55:28;;;;;;;1.27;1.00;;;8.20;99.90;;;;;;4991095;28;20177;-76
2023/01/08 07:57:53;;;;;;;1.30;1.00;;;8.30;99.90;;;;;;4990949;28;20492;-76
2023/01/08 08:00:19;;;;;;;1.10;0.93;;;8.30;99.90;;;;;;4991243;28;20429;-76
2023/01/08 08:02:45;;;;;;;1.00;0.73;;;8.30;99.90;;;;;;4989540;28;20187;-76
2023/01/08 08:05:10;;;;;;;1.27;0.73;;;8.30;99.90;;;;;;4991006;28;20247;-76
2023/01/08 08:07:36;;;;;;;1.37;0.80;;;8.40;99.90;;;;;;4989435;28;20647;-76
2023/01/08 08:10:03;;;;;;;1.10;0.80;;;8.40;99.90;;;;;;4989210;28;20185;-76
2023/01/08 08:12:29;;;;;;;1.40;1.17;;;8.40;99.90;;;;;;4991136;28;20212;-76
2023/01/08 08:14:55;;;;;;;1.83;0.80;;;8.40;99.90;;;;;;4991175;28;20439;-76
2023/01/08 08:17:20;;;;;;;1.63;1.00;;;8.50;99.90;;;;;;4989868;28;20657;-76
2023/01/08 08:19:46;;;;;;;0.80;0.70;;;8.50;99.90;;;;;;4973432;28;20185;-76
2023/01/08 08:22:12;;;;;;;0.90;0.80;;;8.60;99.90;;;;;;4991268;28;20229;-76
2023/01/08 08:24:38;;;;;;;1.10;0.90;;;8.60;99.90;;;;;;4973582;28;20194;-76
2023/01/08 08:27:04;;;;;;;1.47;1.00;;;8.60;99.90;;;;;;4991165;28;20432;-76
2023/01/08 08:29:29;;;;;;;1.00;0.90;;;8.60;99.90;;;;;;4991190;28;20197;-76
2023/01/08 08:31:55;;;;;;;1.27;0.90;;;8.60;99.90;;;;;;4990856;28;20230;-75
2023/01/08 08:34:21;;;;;;;1.43;0.77;;;8.60;99.90;;;;;;4990813;28;20218;-76
2023/01/08 08:36:47;;;;;;;1.77;1.00;;;8.60;99.90;;;;;;4989613;28;20182;-76
2023/01/08 08:39:14;;;;;;;1.30;1.20;;;8.50;99.90;;;;;;4990302;28;20503;-76
2023/01/08 08:41:41;;;;;;;9.23;1.33;;;8.50;99.90;;;;;;4990150;28;20434;-75
2023/01/08 08:44:07;;;;;;;2.77;1.00;;;8.60;99.90;;;;;;4990282;28;20430;-76
2023/01/08 08:46:34;;;;;;;0.83;0.80;;;8.50;99.90;;;;;;4972746;28;20437;-76
2023/01/08 08:48:59;;;;;;;1.03;0.90;;;8.50;99.90;;;;;;4989606;28;20517;-76
2023/01/08 08:51:25;;;;;;;1.47;1.23;;;8.60;99.90;;;;;;4990001;28;20527;-76
2023/01/08 08:53:51;;;;;;;1.00;0.87;;;8.50;99.90;;;;;;4988447;28;20224;-76
2023/01/08 08:56:16;;;;;;;1.30;0.90;;;8.50;99.90;;;;;;4989925;28;20182;-76
2023/01/08 08:58:44;;;;;;;0.80;0.80;;;8.50;99.90;;;;;;4989814;28;20182;-76
2023/01/08 09:01:09;;;;;;;3.60;0.90;;;8.50;99.90;;;;;;4988378;28;20198;-76
2023/01/08 09:03:35;;;;;;;1.33;0.80;;;8.50;99.90;;;;;;4988415;28;20949;-76
2023/01/08 09:06:01;;;;;;;0.87;0.60;;;8.50;99.90;;;;;;4988554;28;20677;-76
2023/01/08 09:08:26;;;;;;;1.37;0.90;;;8.50;99.90;;;;;;4972524;28;20204;-76
2023/01/08 09:10:52;;;;;;;0.93;0.80;;;8.50;99.90;;;;;;4989760;28;20638;-76
2023/01/08 09:13:18;;;;;;;1.63;1.00;;;8.60;99.90;;;;;;4989697;28;20245;-76
2023/01/08 09:15:43;;;;;;;1.23;1.13;;;8.50;99.90;;;;;;4988382;28;20663;-76
2023/01/08 09:18:09;;;;;;;1.20;0.70;;;8.50;99.90;;;;;;4989947;28;20182;-77
2023/01/08 09:20:35;;;;;;;1.57;1.27;;;8.50;99.90;;;;;;4972122;28;20229;-77
2023/01/08 09:23:02;;;;;;;1.10;1.00;;;8.60;99.90;;;;;;4987472;28;20629;-77
2023/01/08 09:25:28;;;;;;;1.30;0.90;;;8.50;99.90;;;;;;4989655;28;20929;-76
2023/01/08 09:28:05;;;;;;;1.40;0.93;;;8.60;99.90;;;;;;4972156;28;20437;-76
2023/01/08 09:30:31;;;;;;;1.83;0.70;;;8.60;99.90;;;;;;4990683;28;20442;-76
2023/01/08 09:32:58;;;;;;;0.90;0.60;;;8.50;99.90;;;;;;4990449;28;20560;-77
2023/01/08 09:35:24;;;;;;;1.03;0.87;;;8.40;99.90;;;;;;4972227;28;20845;-77
2023/01/08 09:37:51;;;;;;;1.73;0.80;;;8.40;99.90;;;;;;4991046;28;20507;-77
2023/01/08 09:40:18;;;;;;;0.93;0.83;;;8.50;99.90;;;;;;4990721;28;20413;-78
2023/01/08 09:42:49;;;;;;;2.40;0.80;;;8.40;99.90;;;;;;4973645;28;20426;-78
2023/01/08 09:45:32;;;;;;;1.20;0.90;;;8.40;99.90;;;;;;4973795;28;20515;-77
2023/01/08 09:48:01;;;;;;;0.93;0.87;;;8.40;99.90;;;;;;4991376;28;20420;-78
2023/01/08 09:50:29;;;;;;;0.90;0.60;;;8.40;99.90;;;;;;4991040;28;20508;-78
2023/01/08 09:52:55;;;;;;;1.00;0.80;;;8.50;99.90;;;;;;4990889;28;20487;-77
2023/01/08 09:55:21;;;;;;;0.90;0.73;;;8.60;99.90;;;;;;4990442;28;20952;-78
2023/01/08 09:57:47;;;;;;;0.97;0.60;;;8.40;99.90;;;;;;4988712;28;20418;-77
2023/01/08 10:00:24;;;;;;;1.10;0.70;;;8.40;99.90;;;;;;4989939;28;20423;-76
2023/01/08 10:02:52;;;;;;;1.57;0.90;;;8.40;99.90;;;;;;4989184;28;20527;-77
2023/01/08 10:05:18;;;;;;;1.57;0.77;;;8.50;99.90;;;;;;4987929;28;20429;-76
2023/01/08 10:07:45;;;;;;;1.00;0.87;;;8.40;99.90;;;;;;4988245;28;20429;-78
2023/01/08 10:10:27;;;;;;;0.80;0.70;;;8.40;99.90;;;;;;4989385;28;20432;-77
2023/01/08 10:12:54;;;;;;;1.30;0.90;;;8.40;99.90;;;;;;4989372;28;20471;-77
2023/01/08 10:15:21;;;;;;;1.50;0.90;;;8.40;99.90;;;;;;4989417;28;20425;-76
2023/01/08 10:18:06;;;;;;;0.80;0.80;;;8.50;99.90;;;;;;4987964;28;20421;-76
2023/01/08 10:20:32;;;;;;;1.53;1.07;;;8.50;99.90;;;;;;4988421;28;20442;-76
2023/01/08 10:23:18;;;;;;;0.90;0.70;;;8.50;99.90;;;;;;4988126;28;20426;-77
2023/01/08 10:25:55;;;;;;;1.00;0.90;;;8.50;99.90;;;;;;4987862;28;20906;-77
2023/01/08 10:28:27;;;;;;;0.80;0.67;;;8.60;99.90;;;;;;4987717;28;20425;-76
2023/01/08 10:31:23;;;;;;;1.33;0.90;;;8.60;99.90;;;;;;4987578;28;20786;-77
2023/01/08 10:33:49;;;;;;;0.93;0.93;;;8.60;99.90;;;;;;4980925;28;20490;-78
2023/01/08 10:36:18;;;;;;;1.00;0.90;;;8.60;99.90;;;;;;4991225;28;20425;-78
2023/01/08 10:38:59;;;;;;;1.67;1.00;;;8.60;99.90;;;;;;4992221;28;20182;-77
2023/01/08 10:41:25;;;;;;;4.30;0.93;;;8.70;99.90;;;;;;4991972;28;20880;-77
2023/01/08 10:43:59;;;;;;;1.07;0.97;;;8.70;99.90;;;;;;4990509;28;20439;-77
2023/01/08 10:46:27;;;;;;;2.33;0.90;;;8.70;99.90;;;;;;4990282;28;20480;-78
2023/01/08 10:48:56;;;;;;;0.93;0.87;;;8.70;99.90;;;;;;5009811;28;20464;-77
2023/01/08 10:51:28;;;;;;;2.70;0.93;;;8.70;99.90;;;;;;5010928;28;20445;-76
2023/01/08 10:53:57;;;;;;;0.90;0.67;;;8.70;99.90;;;;;;4993110;28;20474;-77
2023/01/08 10:56:29;;;;;;;0.83;0.83;;;8.80;99.90;;;;;;4992381;28;20882;-78
2023/01/08 10:58:55;;;;;;;2.30;0.90;;;8.80;99.90;;;;;;4992745;28;20993;-78
2023/01/08 11:01:31;;;;;;;0.90;0.70;;;8.80;99.90;;;;;;4998003;28;20516;-78
2023/01/08 11:04:03;;;;;;;1.10;0.77;;;8.80;99.90;;;;;;4998193;28;20445;-78
2023/01/08 11:06:38;;;;;;;2.00;1.57;;;8.90;99.90;;;;;;4981398;28;20460;-78
2023/01/08 11:09:18;;;;;;;1.07;0.97;;;8.80;99.90;;;;;;4999598;28;20416;-78
2023/01/08 11:11:44;;;;;;;2.00;1.80;;;8.80;99.90;;;;;;4999164;28;20533;-78
2023/01/08 11:14:16;;;;;;;2.00;1.47;;;8.80;99.90;;;;;;4998257;28;20504;-78
2023/01/08 11:16:42;;;;;;;1.97;1.70;;;8.90;99.90;;;;;;4999017;28;20294;-78
2023/01/08 11:19:23;;;;;;;0.87;0.67;;;8.90;99.90;;;;;;4981136;28;20467;-78
2023/01/08 11:21:55;;;;;;;2.00;1.90;;;8.90;99.90;;;;;;4979865;28;20835;-78
2023/01/08 11:24:33;;;;;;;0.80;0.73;;;8.90;99.90;;;;;;4996014;28;20483;-78
2023/01/08 11:27:01;;;;;;;1.27;1.17;;;9.00;99.90;;;;;;4998128;28;20431;-78
2023/01/08 11:29:55;;;;;;;5.40;4.90;;;9.10;99.90;;;;;;4997709;28;20438;-77
2023/01/08 11:32:39;;;;;;;2.13;1.03;;;9.10;99.90;;;;;;4996483;28;20557;-78
2023/01/08 11:35:23;;;;;;;0.73;0.70;;;9.10;99.90;;;;;;4996286;28;20429;-77
2023/01/08 11:37:57;;;;;;;0.70;0.50;;;9.10;99.90;;;;;;4996256;28;20416;-78
2023/01/08 11:40:41;;;;;;;1.30;1.20;;;9.20;99.90;;;;;;4979781;28;20505;-78
2023/01/08 11:43:32;;;;;;;0.80;0.60;;;9.20;99.90;;;;;;4979188;28;20428;-77
2023/01/08 11:46:25;;;;;;;1.63;0.90;;;9.20;99.90;;;;;;4996720;28;21056;-77
2023/01/08 11:49:00;;;;;;;1.00;0.80;;;9.20;99.90;;;;;;4978615;28;20524;-78
2023/01/08 11:51:47;;;;;;;1.23;0.90;;;9.30;99.90;;;;;;4997174;28;20449;-77
2023/01/08 11:54:38;;;;;;;1.20;0.70;;;9.40;99.90;;;;;;4979489;28;20482;-77
2023/01/08 11:57:22;;;;;;;1.13;0.80;;;9.60;99.90;;;;;;4997436;28;20427;-78
2023/01/08 12:00:12;;;;;;;1.00;0.60;;;9.60;99.90;;;;;;4994938;28;20426;-77
2023/01/08 12:02:37;;;;;;;2.13;1.63;;;9.80;99.90;;;;;;4974864;28;20429;-78
2023/01/08 12:05:06;;;;;;;2.60;2.17;;;9.80;99.90;;;;;;4992118;28;20996;-78
2023/01/08 12:07:48;;;;;;;2.80;1.40;;;9.80;99.90;;;;;;4992564;28;20185;-77
2023/01/08 12:10:23;;;;;;;2.80;1.33;;;9.90;99.90;;;;;;4991821;28;20429;-77
2023/01/08 12:12:55;;;;;;;1.80;1.40;;;10.00;99.90;;;;;;4991230;28;20427;-77
2023/01/08 12:15:50;;;;;;;6.30;3.73;;;9.90;99.90;;;;;;4992656;28;20477;-78
2023/01/08 12:18:19;;;;;;;16.80;9.30;;;9.90;99.90;;;;;;4992713;28;20831;-77
2023/01/08 12:20:49;;;;;;;1.97;1.67;;;9.90;99.90;;;;;;4991585;28;20437;-77
2023/01/08 12:23:35;;;;;;;0.90;0.90;;;9.80;99.90;;;;;;4990693;28;20879;-78
2023/01/08 12:26:25;;;;;;;1.80;1.27;;;9.70;99.90;;;;;;4991047;28;20436;-77
2023/01/08 12:28:54;;;;;;;1.60;1.13;;;9.70;99.90;;;;;;4973007;28;20553;-77
2023/01/08 12:31:39;;;;;;;0.80;0.80;;;9.80;99.90;;;;;;4990715;28;20504;-78
2023/01/08 12:34:11;;;;;;;1.37;1.27;;;9.60;99.90;;;;;;4990543;28;20997;-77
2023/01/08 12:36:44;;;;;;;0.83;0.80;;;9.70;99.90;;;;;;4991072;28;20753;-77
2023/01/08 12:39:20;;;;;;;1.17;0.70;;;9.60;99.90;;;;;;4974257;28;20429;-78
2023/01/08 12:41:46;;;;;;;1.10;0.90;;;9.70;99.90;;;;;;4990571;28;20472;-78
2023/01/08 12:44:27;;;;;;;0.90;0.70;;;9.90;99.90;;;;;;4990390;28;20508;-78
2023/01/08 12:46:57;;;;;;;0.80;0.60;;;9.80;99.90;;;;;;4990352;28;20460;-78
2023/01/08 12:49:46;;;;;;;1.00;0.90;;;9.80;99.90;;;;;;4988097;28;20425;-77
2023/01/08 12:52:21;;;;;;;1.10;0.73;;;9.90;99.90;;;;;;4991857;28;20441;-78
2023/01/08 12:54:55;;;;;;;1.20;0.93;;;10.00;99.90;;;;;;4993878;28;20842;-77
2023/01/08 12:57:33;;;;;;;1.00;0.90;;;10.00;99.90;;;;;;4975549;28;20455;-78
2023/01/08 13:00:18;;;;;;;1.07;0.80;;;9.80;99.90;;;;;;4975726;28;20437;-78
2023/01/08 13:02:50;;;;;;;1.27;1.17;;;9.80;99.90;;;;;;4993801;28;21293;-78
2023/01/08 13:05:18;;;;;;;1.10;1.00;;;9.70;99.90;;;;;;4994598;28;20430;-78
2023/01/08 13:07:49;;;;;;;0.80;0.70;;;9.70;99.90;;;;;;4994604;28;20421;-78
2023/01/08 13:10:20;;;;;;;0.90;0.60;;;9.70;99.90;;;;;;4995139;28;20743;-78
2023/01/08 13:12:50;;;;;;;1.33;0.70;;;9.60;99.90;;;;;;4994995;28;20440;-78
2023/01/08 13:15:21;;;;;;;1.17;0.67;;;9.70;99.90;;;;;;4994417;28;21289;-78